sensor_id;sensor_type;location;lat;lon;timestamp;temperature;humidity
6270;DHT22;3168;51.684;6.954;2023-03-05T00:00:43;4.20;1.00
6270;DHT22;3168;51.684;6.954;2023-03-05T00:03:08;4.30;1.00
6270;DHT22;3168;51.684;6.954;2023-03-05T00:05:34;4.30;1.00
6270;DHT22;3168;51.684;6.954;2023-03-05T00:08:00;4.20;1.00
6270;DHT22;3168;51.684;6.954;2023-03-05T00:10:26;4.30;1.00
6270;DHT22;3168;51.684;6.954;2023-03-05T00:12:52;4.30;1.00
6270;DHT22;3168;51.684;6.954;2023-03-05T00:15:17;4.20;1.00
6270;DHT22;3168;51.684;6.954;2023-03-05T00:17:43;4.20;1.00
6270;DHT22;3168;51.684;6.954;2023-03-05T00:20:10;4.20;1.00
6270;DHT22;3168;51.684;6.954;2023-03-05T00:22:36;4.10;1.00
6270;DHT22;3168;51.684;6.954;2023-03-05T00:25:02;4.10;1.00
6270;DHT22;3168;51.684;6.954;2023-03-05T00:27:27;4.10;1.00
6270;DHT22;3168;51.684;6.954;2023-03-05T00:29:53;4.20;1.00
6270;DHT22;3168;51.684;6.954;2023-03-05T00:32:19;4.10;1.00
6270;DHT22;3168;51.684;6.954;2023-03-05T00:34:45;4.10;1.00
6270;DHT22;3168;51.684;6.954;2023-03-05T00:37:10;4.10;1.00
6270;DHT22;3168;51.684;6.954;2023-03-05T00:39:36;4.10;1.00
6270;DHT22;3168;51.684;6.954;2023-03-05T00:42:02;4.10;1.00
6270;DHT22;3168;51.684;6.954;2023-03-05T00:44:28;4.10;1.00
6270;DHT22;3168;51.684;6.954;2023-03-05T00:46:54;4.00;1.00
6270;DHT22;3168;51.684;6.954;2023-03-05T00:49:20;4.00;1.00
6270;DHT22;3168;51.684;6.954;2023-03-05T00:51:45;4.10;1.00
6270;DHT22;3168;51.684;6.954;2023-03-05T00:54:11;4.00;1.00
6270;DHT22;3168;51.684;6.954;2023-03-05T00:56:37;4.10;1.00
6270;DHT22;3168;51.684;6.954;2023-03-05T00:59:03;4.00;1.00
6270;DHT22;3168;51.684;6.954;2023-03-05T01:01:29;3.90;1.00
6270;DHT22;3168;51.684;6.954;2023-03-05T01:03:55;3.90;1.00
6270;DHT22;3168;51.684;6.954;2023-03-05T01:06:21;3.90;1.00
6270;DHT22;3168;51.684;6.954;2023-03-05T01:08:46;3.90;1.00
6270;DHT22;3168;51.684;6.954;2023-03-05T01:11:12;3.90;1.00
6270;DHT22;3168;51.684;6.954;2023-03-05T01:13:38;3.80;1.00
6270;DHT22;3168;51.684;6.954;2023-03-05T01:16:04;3.80;1.00
6270;DHT22;3168;51.684;6.954;2023-03-05T01:18:30;3.90;1.00
6270;DHT22;3168;51.684;6.954;2023-03-05T01:20:56;3.80;1.00
6270;DHT22;3168;51.684;6.954;2023-03-05T01:23:22;3.80;1.00
6270;DHT22;3168;51.684;6.954;2023-03-05T01:25:52;3.80;1.00
6270;DHT22;3168;51.684;6.954;2023-03-05T01:28:17;3.70;1.00
6270;DHT22;3168;51.684;6.954;2023-03-05T01:30:43;3.80;1.00
6270;DHT22;3168;51.684;6.954;2023-03-05T01:33:09;3.80;1.00
6270;DHT22;3168;51.684;6.954;2023-03-05T01:35:34;3.80;1.00
6270;DHT22;3168;51.684;6.954;2023-03-05T01:38:00;3.80;1.00
6270;DHT22;3168;51.684;6.954;2023-03-05T01:40:27;3.80;1.00
6270;DHT22;3168;51.684;6.954;2023-03-05T01:42:55;3.80;1.00
6270;DHT22;3168;51.684;6.954;2023-03-05T01:45:19;3.80;1.00
6270;DHT22;3168;51.684;6.954;2023-03-05T01:47:45;3.80;1.00
6270;DHT22;3168;51.684;6.954;2023-03-05T01:50:13;3.60;1.00
6270;DHT22;3168;51.684;6.954;2023-03-05T01:52:38;3.70;1.00
6270;DHT22;3168;51.684;6.954;2023-03-05T01:55:08;3.70;1.00
6270;DHT22;3168;51.684;6.954;2023-03-05T01:57:35;3.70;1.00
6270;DHT22;3168;51.684;6.954;2023-03-05T02:00:01;3.60;1.00
6270;DHT22;3168;51.684;6.954;2023-03-05T02:02:25;3.70;1.00
6270;DHT22;3168;51.684;6.954;2023-03-05T02:04:54;3.70;1.00
6270;DHT22;3168;51.684;6.954;2023-03-05T02:07:17;3.70;1.00
6270;DHT22;3168;51.684;6.954;2023-03-05T02:09:43;3.70;1.00
6270;DHT22;3168;51.684;6.954;2023-03-05T02:12:09;3.70;1.00
6270;DHT22;3168;51.684;6.954;2023-03-05T02:14:34;3.70;1.00
6270;DHT22;3168;51.684;6.954;2023-03-05T02:17:00;3.70;1.00
6270;DHT22;3168;51.684;6.954;2023-03-05T02:19:26;3.80;1.00
6270;DHT22;3168;51.684;6.954;2023-03-05T02:21:52;3.70;1.00
6270;DHT22;3168;51.684;6.954;2023-03-05T02:24:34;3.70;1.00
6270;DHT22;3168;51.684;6.954;2023-03-05T02:26:44;3.70;1.00
6270;DHT22;3168;51.684;6.954;2023-03-05T02:29:11;3.60;1.00
6270;DHT22;3168;51.684;6.954;2023-03-05T02:31:35;3.60;1.00
6270;DHT22;3168;51.684;6.954;2023-03-05T02:34:01;3.70;1.00
6270;DHT22;3168;51.684;6.954;2023-03-05T02:36:27;3.70;1.00
6270;DHT22;3168;51.684;6.954;2023-03-05T02:38:53;3.70;1.00
6270;DHT22;3168;51.684;6.954;2023-03-05T02:41:18;3.60;1.00
6270;DHT22;3168;51.684;6.954;2023-03-05T02:43:44;3.70;1.00
6270;DHT22;3168;51.684;6.954;2023-03-05T02:46:10;3.60;1.00
6270;DHT22;3168;51.684;6.954;2023-03-05T02:48:36;3.60;1.00
6270;DHT22;3168;51.684;6.954;2023-03-05T02:51:02;3.50;1.00
6270;DHT22;3168;51.684;6.954;2023-03-05T02:53:28;3.50;1.00
6270;DHT22;3168;51.684;6.954;2023-03-05T02:55:54;3.60;1.00
6270;DHT22;3168;51.684;6.954;2023-03-05T02:58:20;3.50;1.00
6270;DHT22;3168;51.684;6.954;2023-03-05T03:00:45;3.50;1.00
6270;DHT22;3168;51.684;6.954;2023-03-05T03:03:11;3.60;1.00
6270;DHT22;3168;51.684;6.954;2023-03-05T03:05:37;3.60;1.00
6270;DHT22;3168;51.684;6.954;2023-03-05T03:08:03;3.50;1.00
6270;DHT22;3168;51.684;6.954;2023-03-05T03:10:29;3.60;1.00
6270;DHT22;3168;51.684;6.954;2023-03-05T03:12:55;3.60;1.00
6270;DHT22;3168;51.684;6.954;2023-03-05T03:15:21;3.50;1.00
6270;DHT22;3168;51.684;6.954;2023-03-05T03:17:47;3.60;1.00
6270;DHT22;3168;51.684;6.954;2023-03-05T03:20:13;3.50;1.00
6270;DHT22;3168;51.684;6.954;2023-03-05T03:22:39;3.50;1.00
6270;DHT22;3168;51.684;6.954;2023-03-05T03:25:05;3.50;1.00
6270;DHT22;3168;51.684;6.954;2023-03-05T03:27:31;3.50;1.00
6270;DHT22;3168;51.684;6.954;2023-03-05T03:29:57;3.60;1.00
6270;DHT22;3168;51.684;6.954;2023-03-05T03:32:22;3.60;1.00
6270;DHT22;3168;51.684;6.954;2023-03-05T03:34:48;3.50;1.00
6270;DHT22;3168;51.684;6.954;2023-03-05T03:37:14;3.50;1.00
6270;DHT22;3168;51.684;6.954;2023-03-05T03:39:40;3.50;1.00
6270;DHT22;3168;51.684;6.954;2023-03-05T03:42:06;3.50;1.00
6270;DHT22;3168;51.684;6.954;2023-03-05T03:44:32;3.50;1.00
6270;DHT22;3168;51.684;6.954;2023-03-05T03:46:58;3.50;1.00
6270;DHT22;3168;51.684;6.954;2023-03-05T03:49:24;3.50;1.00
6270;DHT22;3168;51.684;6.954;2023-03-05T03:51:49;3.50;1.00
6270;DHT22;3168;51.684;6.954;2023-03-05T03:54:15;3.40;1.00
6270;DHT22;3168;51.684;6.954;2023-03-05T03:56:41;3.40;1.00
6270;DHT22;3168;51.684;6.954;2023-03-05T03:59:06;3.40;1.00
6270;DHT22;3168;51.684;6.954;2023-03-05T04:01:32;3.40;1.00
6270;DHT22;3168;51.684;6.954;2023-03-05T04:03:58;3.40;1.00
6270;DHT22;3168;51.684;6.954;2023-03-05T04:06:24;3.40;1.00
6270;DHT22;3168;51.684;6.954;2023-03-05T04:08:50;3.40;1.00
6270;DHT22;3168;51.684;6.954;2023-03-05T04:11:15;3.50;1.00
6270;DHT22;3168;51.684;6.954;2023-03-05T04:13:41;3.40;1.00
6270;DHT22;3168;51.684;6.954;2023-03-05T04:16:07;3.40;1.00
6270;DHT22;3168;51.684;6.954;2023-03-05T04:18:33;3.40;1.00
6270;DHT22;3168;51.684;6.954;2023-03-05T04:20:59;3.40;1.00
6270;DHT22;3168;51.684;6.954;2023-03-05T04:23:24;3.40;1.00
6270;DHT22;3168;51.684;6.954;2023-03-05T04:25:50;3.40;1.00
6270;DHT22;3168;51.684;6.954;2023-03-05T04:28:16;3.40;1.00
6270;DHT22;3168;51.684;6.954;2023-03-05T04:30:42;3.40;1.00
6270;DHT22;3168;51.684;6.954;2023-03-05T04:33:08;3.40;1.00
6270;DHT22;3168;51.684;6.954;2023-03-05T04:35:34;3.40;1.00
6270;DHT22;3168;51.684;6.954;2023-03-05T04:38:00;3.40;1.00
6270;DHT22;3168;51.684;6.954;2023-03-05T04:40:25;3.30;1.00
6270;DHT22;3168;51.684;6.954;2023-03-05T04:42:51;3.30;1.00
6270;DHT22;3168;51.684;6.954;2023-03-05T04:45:17;3.30;1.00
6270;DHT22;3168;51.684;6.954;2023-03-05T04:47:43;3.30;1.00
6270;DHT22;3168;51.684;6.954;2023-03-05T04:50:09;3.20;1.00
6270;DHT22;3168;51.684;6.954;2023-03-05T04:52:39;3.20;1.00
6270;DHT22;3168;51.684;6.954;2023-03-05T04:55:05;3.20;1.00
6270;DHT22;3168;51.684;6.954;2023-03-05T04:57:30;3.20;1.00
6270;DHT22;3168;51.684;6.954;2023-03-05T04:59:56;3.20;1.00
6270;DHT22;3168;51.684;6.954;2023-03-05T05:02:22;3.20;1.00
6270;DHT22;3168;51.684;6.954;2023-03-05T05:04:51;3.20;1.00
6270;DHT22;3168;51.684;6.954;2023-03-05T05:07:14;3.20;1.00
6270;DHT22;3168;51.684;6.954;2023-03-05T05:09:39;3.30;1.00
6270;DHT22;3168;51.684;6.954;2023-03-05T05:12:06;3.20;1.00
6270;DHT22;3168;51.684;6.954;2023-03-05T05:14:32;3.30;1.00
6270;DHT22;3168;51.684;6.954;2023-03-05T05:16:58;3.30;1.00
6270;DHT22;3168;51.684;6.954;2023-03-05T05:19:23;3.00;1.00
6270;DHT22;3168;51.684;6.954;2023-03-05T05:21:49;3.20;1.00
6270;DHT22;3168;51.684;6.954;2023-03-05T05:24:15;3.30;1.00
6270;DHT22;3168;51.684;6.954;2023-03-05T05:26:41;3.30;1.00
6270;DHT22;3168;51.684;6.954;2023-03-05T05:29:07;3.20;1.00
6270;DHT22;3168;51.684;6.954;2023-03-05T05:31:33;3.40;1.00
6270;DHT22;3168;51.684;6.954;2023-03-05T05:33:58;3.30;1.10
6270;DHT22;3168;51.684;6.954;2023-03-05T05:36:24;3.30;1.30
6270;DHT22;3168;51.684;6.954;2023-03-05T05:38:50;3.30;1.50
6270;DHT22;3168;51.684;6.954;2023-03-05T05:41:16;3.30;3.30
6270;DHT22;3168;51.684;6.954;2023-03-05T05:43:42;3.30;3.50
6270;DHT22;3168;51.684;6.954;2023-03-05T05:46:09;3.30;4.10
6270;DHT22;3168;51.684;6.954;2023-03-05T05:48:34;3.30;4.00
6270;DHT22;3168;51.684;6.954;2023-03-05T05:51:00;3.30;3.80
6270;DHT22;3168;51.684;6.954;2023-03-05T05:53:25;3.30;4.00
6270;DHT22;3168;51.684;6.954;2023-03-05T05:55:51;3.30;5.50
6270;DHT22;3168;51.684;6.954;2023-03-05T05:58:16;3.30;5.60
6270;DHT22;3168;51.684;6.954;2023-03-05T06:00:42;3.30;6.70
6270;DHT22;3168;51.684;6.954;2023-03-05T06:03:08;3.40;7.50
6270;DHT22;3168;51.684;6.954;2023-03-05T06:05:34;3.30;7.50
6270;DHT22;3168;51.684;6.954;2023-03-05T06:08:00;3.30;6.40
6270;DHT22;3168;51.684;6.954;2023-03-05T06:10:26;3.30;7.70
6270;DHT22;3168;51.684;6.954;2023-03-05T06:12:52;3.30;9.20
6270;DHT22;3168;51.684;6.954;2023-03-05T06:15:17;3.30;9.20
6270;DHT22;3168;51.684;6.954;2023-03-05T06:17:43;3.20;8.80
6270;DHT22;3168;51.684;6.954;2023-03-05T06:20:10;3.30;9.50
6270;DHT22;3168;51.684;6.954;2023-03-05T06:22:36;3.30;7.80
6270;DHT22;3168;51.684;6.954;2023-03-05T06:25:02;3.20;7.20
6270;DHT22;3168;51.684;6.954;2023-03-05T06:27:27;3.20;8.70
6270;DHT22;3168;51.684;6.954;2023-03-05T06:29:53;3.30;9.30
6270;DHT22;3168;51.684;6.954;2023-03-05T06:32:19;3.20;8.00
6270;DHT22;3168;51.684;6.954;2023-03-05T06:34:45;3.20;8.50
6270;DHT22;3168;51.684;6.954;2023-03-05T06:37:11;3.30;8.80
6270;DHT22;3168;51.684;6.954;2023-03-05T06:39:36;3.30;8.20
6270;DHT22;3168;51.684;6.954;2023-03-05T06:42:02;3.20;5.60
6270;DHT22;3168;51.684;6.954;2023-03-05T06:44:28;3.30;5.60
6270;DHT22;3168;51.684;6.954;2023-03-05T06:46:54;3.30;6.60
6270;DHT22;3168;51.684;6.954;2023-03-05T06:49:20;3.30;5.60
6270;DHT22;3168;51.684;6.954;2023-03-05T06:51:45;3.30;4.50
6270;DHT22;3168;51.684;6.954;2023-03-05T06:54:12;3.40;2.60
6270;DHT22;3168;51.684;6.954;2023-03-05T06:56:38;3.40;1.50
6270;DHT22;3168;51.684;6.954;2023-03-05T06:59:03;3.40;1.00
6270;DHT22;3168;51.684;6.954;2023-03-05T07:01:29;3.40;1.00
6270;DHT22;3168;51.684;6.954;2023-03-05T07:03:55;3.40;1.00
6270;DHT22;3168;51.684;6.954;2023-03-05T07:06:21;3.50;1.00
6270;DHT22;3168;51.684;6.954;2023-03-05T07:08:47;3.40;1.00
6270;DHT22;3168;51.684;6.954;2023-03-05T07:11:13;3.50;1.00
6270;DHT22;3168;51.684;6.954;2023-03-05T07:13:38;3.50;1.00
6270;DHT22;3168;51.684;6.954;2023-03-05T07:16:07;3.50;1.00
6270;DHT22;3168;51.684;6.954;2023-03-05T07:18:32;3.50;1.00
6270;DHT22;3168;51.684;6.954;2023-03-05T07:21:04;3.50;1.00
6270;DHT22;3168;51.684;6.954;2023-03-05T07:23:30;3.50;1.00
6270;DHT22;3168;51.684;6.954;2023-03-05T07:26:00;3.60;1.00
6270;DHT22;3168;51.684;6.954;2023-03-05T07:28:26;3.60;1.00
6270;DHT22;3168;51.684;6.954;2023-03-05T07:30:57;3.60;1.00
6270;DHT22;3168;51.684;6.954;2023-03-05T07:33:22;3.60;1.00
6270;DHT22;3168;51.684;6.954;2023-03-05T07:35:48;3.60;1.00
6270;DHT22;3168;51.684;6.954;2023-03-05T07:38:13;3.60;1.00
6270;DHT22;3168;51.684;6.954;2023-03-05T07:40:39;3.70;1.00
6270;DHT22;3168;51.684;6.954;2023-03-05T07:43:05;3.60;1.00
6270;DHT22;3168;51.684;6.954;2023-03-05T07:45:31;3.70;1.00
6270;DHT22;3168;51.684;6.954;2023-03-05T07:47:57;3.70;1.00
6270;DHT22;3168;51.684;6.954;2023-03-05T07:50:23;3.70;1.00
6270;DHT22;3168;51.684;6.954;2023-03-05T07:52:48;3.80;1.00
6270;DHT22;3168;51.684;6.954;2023-03-05T07:55:14;3.80;1.00
6270;DHT22;3168;51.684;6.954;2023-03-05T07:57:40;3.90;1.00
6270;DHT22;3168;51.684;6.954;2023-03-05T08:00:07;3.90;1.00
6270;DHT22;3168;51.684;6.954;2023-03-05T08:02:33;3.90;1.00
6270;DHT22;3168;51.684;6.954;2023-03-05T08:04:58;3.90;1.00
6270;DHT22;3168;51.684;6.954;2023-03-05T08:07:24;4.00;1.00
6270;DHT22;3168;51.684;6.954;2023-03-05T08:09:50;4.00;1.00
6270;DHT22;3168;51.684;6.954;2023-03-05T08:12:16;4.10;1.00
6270;DHT22;3168;51.684;6.954;2023-03-05T08:14:42;4.10;1.00
6270;DHT22;3168;51.684;6.954;2023-03-05T08:17:08;4.30;1.00
6270;DHT22;3168;51.684;6.954;2023-03-05T08:19:33;4.30;1.00
6270;DHT22;3168;51.684;6.954;2023-03-05T08:21:59;4.10;1.00
6270;DHT22;3168;51.684;6.954;2023-03-05T08:24:25;4.10;1.00
6270;DHT22;3168;51.684;6.954;2023-03-05T08:26:51;4.10;1.00
6270;DHT22;3168;51.684;6.954;2023-03-05T08:29:17;4.20;1.00
6270;DHT22;3168;51.684;6.954;2023-03-05T08:31:44;4.20;1.00
6270;DHT22;3168;51.684;6.954;2023-03-05T08:34:08;4.10;1.00
6270;DHT22;3168;51.684;6.954;2023-03-05T08:36:34;4.20;1.00
6270;DHT22;3168;51.684;6.954;2023-03-05T08:39:00;4.10;1.00
6270;DHT22;3168;51.684;6.954;2023-03-05T08:41:26;4.10;1.00
6270;DHT22;3168;51.684;6.954;2023-03-05T08:43:51;4.20;1.00
6270;DHT22;3168;51.684;6.954;2023-03-05T08:46:17;4.30;1.00
6270;DHT22;3168;51.684;6.954;2023-03-05T08:48:43;4.30;1.00
6270;DHT22;3168;51.684;6.954;2023-03-05T08:51:11;4.20;1.00
6270;DHT22;3168;51.684;6.954;2023-03-05T08:53:35;4.20;1.00
6270;DHT22;3168;51.684;6.954;2023-03-05T08:56:01;4.20;1.00
6270;DHT22;3168;51.684;6.954;2023-03-05T08:58:27;4.20;1.00
6270;DHT22;3168;51.684;6.954;2023-03-05T09:00:52;4.30;1.00
6270;DHT22;3168;51.684;6.954;2023-03-05T09:03:18;4.30;1.00
6270;DHT22;3168;51.684;6.954;2023-03-05T09:05:44;4.40;1.00
6270;DHT22;3168;51.684;6.954;2023-03-05T09:08:10;4.40;1.00
6270;DHT22;3168;51.684;6.954;2023-03-05T09:10:36;4.30;1.00
6270;DHT22;3168;51.684;6.954;2023-03-05T09:13:02;4.30;1.00
6270;DHT22;3168;51.684;6.954;2023-03-05T09:15:27;4.40;1.00
6270;DHT22;3168;51.684;6.954;2023-03-05T09:17:53;4.30;1.00
6270;DHT22;3168;51.684;6.954;2023-03-05T09:20:19;4.20;1.00
6270;DHT22;3168;51.684;6.954;2023-03-05T09:22:45;4.20;1.00
6270;DHT22;3168;51.684;6.954;2023-03-05T09:25:11;4.30;1.00
6270;DHT22;3168;51.684;6.954;2023-03-05T09:27:37;4.30;1.00
6270;DHT22;3168;51.684;6.954;2023-03-05T09:30:04;4.10;1.00
6270;DHT22;3168;51.684;6.954;2023-03-05T09:32:30;4.20;1.00
6270;DHT22;3168;51.684;6.954;2023-03-05T09:34:56;4.40;1.00
6270;DHT22;3168;51.684;6.954;2023-03-05T09:37:22;4.40;1.00
6270;DHT22;3168;51.684;6.954;2023-03-05T09:39:47;4.40;1.00
6270;DHT22;3168;51.684;6.954;2023-03-05T09:52:44;4.60;1.00
6270;DHT22;3168;51.684;6.954;2023-03-05T09:55:11;4.60;1.00
6270;DHT22;3168;51.684;6.954;2023-03-05T09:57:38;4.70;1.00
6270;DHT22;3168;51.684;6.954;2023-03-05T10:00:03;4.90;1.00
6270;DHT22;3168;51.684;6.954;2023-03-05T10:02:28;4.80;1.00
6270;DHT22;3168;51.684;6.954;2023-03-05T10:04:55;4.90;1.00
6270;DHT22;3168;51.684;6.954;2023-03-05T10:07:25;5.00;1.00
6270;DHT22;3168;51.684;6.954;2023-03-05T10:09:53;5.00;1.00
6270;DHT22;3168;51.684;6.954;2023-03-05T10:12:30;4.90;1.00
6270;DHT22;3168;51.684;6.954;2023-03-05T10:14:52;4.90;1.00
6270;DHT22;3168;51.684;6.954;2023-03-05T10:17:33;5.00;1.00
6270;DHT22;3168;51.684;6.954;2023-03-05T10:22:27;5.30;1.00
6270;DHT22;3168;51.684;6.954;2023-03-05T10:25:16;5.40;1.00
6270;DHT22;3168;51.684;6.954;2023-03-05T10:27:45;5.70;1.00
6270;DHT22;3168;51.684;6.954;2023-03-05T10:31:19;5.80;1.00
6270;DHT22;3168;51.684;6.954;2023-03-05T10:32:57;5.70;1.00
6270;DHT22;3168;51.684;6.954;2023-03-05T10:35:38;5.50;1.00
6270;DHT22;3168;51.684;6.954;2023-03-05T10:38:06;5.40;1.00
6270;DHT22;3168;51.684;6.954;2023-03-05T10:40:51;5.50;1.00
6270;DHT22;3168;51.684;6.954;2023-03-05T10:43:20;5.60;1.00
6270;DHT22;3168;51.684;6.954;2023-03-05T10:45:44;5.70;1.00
6270;DHT22;3168;51.684;6.954;2023-03-05T10:48:34;5.60;1.00
6270;DHT22;3168;51.684;6.954;2023-03-05T10:51:03;5.90;1.00
6270;DHT22;3168;51.684;6.954;2023-03-05T10:53:39;5.80;1.00
6270;DHT22;3168;51.684;6.954;2023-03-05T10:56:03;5.90;1.00
6270;DHT22;3168;51.684;6.954;2023-03-05T10:58:28;6.20;1.00
6270;DHT22;3168;51.684;6.954;2023-03-05T11:01:00;6.40;1.00
6270;DHT22;3168;51.684;6.954;2023-03-05T11:03:24;6.20;1.00
6270;DHT22;3168;51.684;6.954;2023-03-05T11:05:53;6.20;1.00
6270;DHT22;3168;51.684;6.954;2023-03-05T11:08:25;6.00;1.00
6270;DHT22;3168;51.684;6.954;2023-03-05T11:11:04;6.10;1.00
6270;DHT22;3168;51.684;6.954;2023-03-05T11:13:29;6.10;1.00
6270;DHT22;3168;51.684;6.954;2023-03-05T11:16:01;6.20;1.00
6270;DHT22;3168;51.684;6.954;2023-03-05T11:18:26;6.20;1.00
6270;DHT22;3168;51.684;6.954;2023-03-05T11:20:52;6.30;1.00
6270;DHT22;3168;51.684;6.954;2023-03-05T11:23:20;6.10;1.00
6270;DHT22;3168;51.684;6.954;2023-03-05T11:25:52;6.30;1.00
6270;DHT22;3168;51.684;6.954;2023-03-05T11:28:17;6.30;1.00
6270;DHT22;3168;51.684;6.954;2023-03-05T11:30:42;6.20;1.00
6270;DHT22;3168;51.684;6.954;2023-03-05T11:33:09;6.00;1.00
6270;DHT22;3168;51.684;6.954;2023-03-05T11:35:36;6.00;1.00
6270;DHT22;3168;51.684;6.954;2023-03-05T11:38:02;6.00;1.00
6270;DHT22;3168;51.684;6.954;2023-03-05T11:40:28;6.00;1.00
6270;DHT22;3168;51.684;6.954;2023-03-05T11:42:55;6.00;1.00
6270;DHT22;3168;51.684;6.954;2023-03-05T11:45:19;5.90;1.00
6270;DHT22;3168;51.684;6.954;2023-03-05T11:47:47;5.90;1.00
6270;DHT22;3168;51.684;6.954;2023-03-05T11:50:26;6.00;1.00
6270;DHT22;3168;51.684;6.954;2023-03-05T11:52:53;6.10;1.00
6270;DHT22;3168;51.684;6.954;2023-03-05T11:55:23;6.10;1.00
6270;DHT22;3168;51.684;6.954;2023-03-05T11:57:56;6.00;1.00
6270;DHT22;3168;51.684;6.954;2023-03-05T12:00:20;6.20;1.00
6270;DHT22;3168;51.684;6.954;2023-03-05T12:02:44;6.30;1.00
6270;DHT22;3168;51.684;6.954;2023-03-05T12:05:13;6.30;1.00
6270;DHT22;3168;51.684;6.954;2023-03-05T12:07:36;6.30;1.00
6270;DHT22;3168;51.684;6.954;2023-03-05T12:10:01;6.60;1.00
6270;DHT22;3168;51.684;6.954;2023-03-05T12:15:32;6.90;1.00
6270;DHT22;3168;51.684;6.954;2023-03-05T12:20:37;7.00;1.00
6270;DHT22;3168;51.684;6.954;2023-03-05T12:23:01;7.10;1.00
6270;DHT22;3168;51.684;6.954;2023-03-05T12:25:30;7.10;1.00
6270;DHT22;3168;51.684;6.954;2023-03-05T12:27:53;7.30;1.00
6270;DHT22;3168;51.684;6.954;2023-03-05T12:30:52;7.30;1.00
6270;DHT22;3168;51.684;6.954;2023-03-05T12:32:54;7.30;1.00
6270;DHT22;3168;51.684;6.954;2023-03-05T12:35:23;7.20;1.00
6270;DHT22;3168;51.684;6.954;2023-03-05T12:38:05;7.00;1.00
6270;DHT22;3168;51.684;6.954;2023-03-05T12:40:30;6.90;1.00
6270;DHT22;3168;51.684;6.954;2023-03-05T12:42:57;7.20;1.00
6270;DHT22;3168;51.684;6.954;2023-03-05T12:45:25;7.70;1.00
6270;DHT22;3168;51.684;6.954;2023-03-05T12:50:48;7.70;1.00
6270;DHT22;3168;51.684;6.954;2023-03-05T12:53:15;7.90;1.00
6270;DHT22;3168;51.684;6.954;2023-03-05T12:56:00;7.80;1.00
6270;DHT22;3168;51.684;6.954;2023-03-05T12:58:43;7.90;1.00
6270;DHT22;3168;51.684;6.954;2023-03-05T13:01:32;7.90;1.00
6270;DHT22;3168;51.684;6.954;2023-03-05T13:03:57;7.70;1.00
6270;DHT22;3168;51.684;6.954;2023-03-05T13:06:29;7.20;1.00
6270;DHT22;3168;51.684;6.954;2023-03-05T13:08:54;7.40;1.00
6270;DHT22;3168;51.684;6.954;2023-03-05T13:11:19;7.30;1.00
6270;DHT22;3168;51.684;6.954;2023-03-05T13:13:46;7.30;1.00
6270;DHT22;3168;51.684;6.954;2023-03-05T13:18:58;7.50;1.00
6270;DHT22;3168;51.684;6.954;2023-03-05T13:21:25;7.70;1.00
6270;DHT22;3168;51.684;6.954;2023-03-05T13:23:50;7.80;1.00
6270;DHT22;3168;51.684;6.954;2023-03-05T13:26:17;7.30;1.00
6270;DHT22;3168;51.684;6.954;2023-03-05T13:28:42;7.40;1.00
6270;DHT22;3168;51.684;6.954;2023-03-05T13:31:12;7.20;1.00
6270;DHT22;3168;51.684;6.954;2023-03-05T13:33:37;7.30;1.00
6270;DHT22;3168;51.684;6.954;2023-03-05T13:36:03;7.50;1.00
6270;DHT22;3168;51.684;6.954;2023-03-05T13:38:34;7.70;1.00
6270;DHT22;3168;51.684;6.954;2023-03-05T13:41:00;7.70;1.00
6270;DHT22;3168;51.684;6.954;2023-03-05T13:43:25;7.70;1.00
6270;DHT22;3168;51.684;6.954;2023-03-05T13:45:52;7.80;1.00
6270;DHT22;3168;51.684;6.954;2023-03-05T13:48:18;7.80;1.00
6270;DHT22;3168;51.684;6.954;2023-03-05T13:50:43;7.90;1.00
6270;DHT22;3168;51.684;6.954;2023-03-05T13:53:16;8.00;1.00
6270;DHT22;3168;51.684;6.954;2023-03-05T13:55:41;7.90;1.00
6270;DHT22;3168;51.684;6.954;2023-03-05T13:58:39;7.80;1.00
6270;DHT22;3168;51.684;6.954;2023-03-05T14:00:35;7.60;1.00
6270;DHT22;3168;51.684;6.954;2023-03-05T14:05:31;7.90;1.00
6270;DHT22;3168;51.684;6.954;2023-03-05T14:07:57;7.70;1.00
6270;DHT22;3168;51.684;6.954;2023-03-05T14:10:35;7.80;1.00
6270;DHT22;3168;51.684;6.954;2023-03-05T14:13:02;7.70;1.00
6270;DHT22;3168;51.684;6.954;2023-03-05T14:15:28;7.90;1.00
6270;DHT22;3168;51.684;6.954;2023-03-05T14:18:16;8.00;1.00
6270;DHT22;3168;51.684;6.954;2023-03-05T14:23:40;7.80;1.00
6270;DHT22;3168;51.684;6.954;2023-03-05T14:26:26;7.70;1.00
6270;DHT22;3168;51.684;6.954;2023-03-05T14:29:01;7.60;1.00
6270;DHT22;3168;51.684;6.954;2023-03-05T14:31:28;7.70;1.00
6270;DHT22;3168;51.684;6.954;2023-03-05T14:33:53;7.40;1.00
6270;DHT22;3168;51.684;6.954;2023-03-05T14:36:22;7.30;1.00
6270;DHT22;3168;51.684;6.954;2023-03-05T14:38:47;7.40;1.00
6270;DHT22;3168;51.684;6.954;2023-03-05T14:41:18;7.50;1.00
6270;DHT22;3168;51.684;6.954;2023-03-05T14:43:43;7.50;1.00
6270;DHT22;3168;51.684;6.954;2023-03-05T14:46:09;7.40;1.00
6270;DHT22;3168;51.684;6.954;2023-03-05T14:48:35;7.30;1.00
6270;DHT22;3168;51.684;6.954;2023-03-05T14:51:01;7.20;1.00
6270;DHT22;3168;51.684;6.954;2023-03-05T14:53:27;7.10;1.00
6270;DHT22;3168;51.684;6.954;2023-03-05T14:55:53;7.40;1.00
6270;DHT22;3168;51.684;6.954;2023-03-05T14:58:19;7.30;1.00
6270;DHT22;3168;51.684;6.954;2023-03-05T15:00:44;7.30;1.00
6270;DHT22;3168;51.684;6.954;2023-03-05T15:03:12;7.20;1.00
6270;DHT22;3168;51.684;6.954;2023-03-05T15:05:37;7.20;1.00
6270;DHT22;3168;51.684;6.954;2023-03-05T15:08:03;7.00;1.00
6270;DHT22;3168;51.684;6.954;2023-03-05T15:10:29;7.00;1.00
6270;DHT22;3168;51.684;6.954;2023-03-05T15:12:55;6.90;1.00
6270;DHT22;3168;51.684;6.954;2023-03-05T15:15:22;7.10;1.00
6270;DHT22;3168;51.684;6.954;2023-03-05T15:17:48;7.00;1.00
6270;DHT22;3168;51.684;6.954;2023-03-05T15:20:15;7.10;1.00
6270;DHT22;3168;51.684;6.954;2023-03-05T15:22:40;7.10;1.00
6270;DHT22;3168;51.684;6.954;2023-03-05T15:25:06;7.00;1.00
6270;DHT22;3168;51.684;6.954;2023-03-05T15:27:32;7.10;1.00
6270;DHT22;3168;51.684;6.954;2023-03-05T15:29:57;7.10;1.00
6270;DHT22;3168;51.684;6.954;2023-03-05T15:32:25;6.80;1.00
6270;DHT22;3168;51.684;6.954;2023-03-05T15:34:50;6.80;1.00
6270;DHT22;3168;51.684;6.954;2023-03-05T15:37:16;6.80;1.00
6270;DHT22;3168;51.684;6.954;2023-03-05T15:39:42;6.70;1.00
6270;DHT22;3168;51.684;6.954;2023-03-05T15:42:07;6.70;1.00
6270;DHT22;3168;51.684;6.954;2023-03-05T15:44:33;6.80;1.00
6270;DHT22;3168;51.684;6.954;2023-03-05T15:46:59;6.90;1.00
6270;DHT22;3168;51.684;6.954;2023-03-05T15:49:25;6.70;1.00
6270;DHT22;3168;51.684;6.954;2023-03-05T15:51:51;6.90;1.00
6270;DHT22;3168;51.684;6.954;2023-03-05T15:54:17;6.90;1.00
6270;DHT22;3168;51.684;6.954;2023-03-05T15:56:43;6.90;1.00
6270;DHT22;3168;51.684;6.954;2023-03-05T15:59:08;6.90;1.00
6270;DHT22;3168;51.684;6.954;2023-03-05T16:01:36;6.80;1.00
6270;DHT22;3168;51.684;6.954;2023-03-05T16:04:01;6.80;1.00
6270;DHT22;3168;51.684;6.954;2023-03-05T16:06:27;6.70;1.00
6270;DHT22;3168;51.684;6.954;2023-03-05T16:08:57;6.50;1.00
6270;DHT22;3168;51.684;6.954;2023-03-05T16:11:20;6.50;1.00
6270;DHT22;3168;51.684;6.954;2023-03-05T16:13:46;6.60;1.00
6270;DHT22;3168;51.684;6.954;2023-03-05T16:16:12;6.50;1.00
6270;DHT22;3168;51.684;6.954;2023-03-05T16:18:39;6.50;1.00
6270;DHT22;3168;51.684;6.954;2023-03-05T16:21:04;6.50;1.00
6270;DHT22;3168;51.684;6.954;2023-03-05T16:23:30;6.30;1.00
6270;DHT22;3168;51.684;6.954;2023-03-05T16:25:56;6.10;1.00
6270;DHT22;3168;51.684;6.954;2023-03-05T16:28:21;6.10;1.00
6270;DHT22;3168;51.684;6.954;2023-03-05T16:30:51;6.10;1.00
6270;DHT22;3168;51.684;6.954;2023-03-05T16:33:16;6.10;1.00
6270;DHT22;3168;51.684;6.954;2023-03-05T16:35:42;6.00;1.00
6270;DHT22;3168;51.684;6.954;2023-03-05T16:38:08;6.00;1.00
6270;DHT22;3168;51.684;6.954;2023-03-05T16:40:35;6.00;1.00
6270;DHT22;3168;51.684;6.954;2023-03-05T16:43:00;6.00;1.00
6270;DHT22;3168;51.684;6.954;2023-03-05T16:45:26;5.90;1.00
6270;DHT22;3168;51.684;6.954;2023-03-05T16:47:52;5.90;1.00
6270;DHT22;3168;51.684;6.954;2023-03-05T16:50:18;5.90;1.00
6270;DHT22;3168;51.684;6.954;2023-03-05T16:52:44;5.90;1.00
6270;DHT22;3168;51.684;6.954;2023-03-05T16:55:10;5.80;1.00
6270;DHT22;3168;51.684;6.954;2023-03-05T16:57:37;5.80;1.00
6270;DHT22;3168;51.684;6.954;2023-03-05T17:00:02;5.90;1.00